createdAt,value
2022-07-28T00:00:17.604Z,735
2022-07-28T00:02:18.333Z,729
2022-07-28T00:04:17.452Z,726
2022-07-28T00:06:17.479Z,729
2022-07-28T00:08:18.156Z,726
2022-07-28T00:10:18.051Z,711
2022-07-28T00:12:17.934Z,725
2022-07-28T00:14:17.863Z,709
2022-07-28T00:16:17.737Z,724
2022-07-28T00:18:17.833Z,718
2022-07-28T00:20:17.886Z,714
2022-07-28T00:22:17.948Z,711
2022-07-28T00:24:17.854Z,721
2022-07-28T00:26:17.965Z,714
2022-07-28T00:28:17.897Z,708
2022-07-28T00:30:17.673Z,709
2022-07-28T00:32:17.511Z,721
2022-07-28T00:34:18.109Z,714
2022-07-28T00:36:17.922Z,717
2022-07-28T00:38:17.367Z,717
2022-07-28T00:40:17.474Z,721
2022-07-28T00:42:18.289Z,725
2022-07-28T00:44:18.087Z,724
2022-07-28T00:46:18.401Z,727
2022-07-28T00:48:17.885Z,711
2022-07-28T00:50:17.647Z,716
2022-07-28T00:52:18.328Z,725
2022-07-28T00:54:18.156Z,731
2022-07-28T00:56:17.405Z,733
2022-07-28T00:58:18.238Z,723
2022-07-28T01:00:17.970Z,734
2022-07-28T01:02:17.747Z,727
2022-07-28T01:04:17.843Z,731
2022-07-28T01:06:18.171Z,737
2022-07-28T01:08:18.020Z,744
2022-07-28T01:10:17.858Z,737
2022-07-28T01:12:18.330Z,732
2022-07-28T01:14:18.414Z,733
2022-07-28T01:16:18.305Z,730
2022-07-28T01:18:17.535Z,734
2022-07-28T01:20:18.293Z,740
2022-07-28T01:22:17.745Z,728
2022-07-28T01:24:17.986Z,745
2022-07-28T01:26:17.969Z,763
2022-07-28T01:28:17.766Z,740
2022-07-28T01:30:17.920Z,727
2022-07-28T01:32:17.485Z,744
2022-07-28T01:34:18.133Z,744
2022-07-28T01:36:17.909Z,739
2022-07-28T01:38:17.774Z,742
2022-07-28T01:40:17.652Z,744
2022-07-28T01:42:17.800Z,732
2022-07-28T01:44:18.123Z,735
2022-07-28T01:46:17.561Z,735
2022-07-28T01:48:17.459Z,734
2022-07-28T01:50:18.321Z,736
2022-07-28T01:52:17.654Z,731
2022-07-28T01:54:18.155Z,732
2022-07-28T01:56:17.893Z,737
2022-07-28T01:58:17.486Z,756
2022-07-28T02:00:17.874Z,737
2022-07-28T02:02:17.638Z,740
2022-07-28T02:04:18.005Z,742
2022-07-28T02:06:17.761Z,808
2022-07-28T02:08:17.843Z,789
2022-07-28T02:10:17.568Z,871
2022-07-28T02:12:17.479Z,786
2022-07-28T02:14:18.369Z,757
2022-07-28T02:16:18.215Z,754
2022-07-28T02:18:18.199Z,748
2022-07-28T02:20:18.126Z,741
2022-07-28T02:22:18.092Z,756
2022-07-28T02:24:18.061Z,764
2022-07-28T02:26:17.976Z,787
2022-07-28T02:28:17.893Z,757
2022-07-28T02:30:17.717Z,747
2022-07-28T02:32:27.001Z,746
2022-07-28T02:34:18.253Z,746
2022-07-28T02:36:18.143Z,748
2022-07-28T02:38:17.978Z,740
2022-07-28T02:40:17.811Z,735
2022-07-28T02:42:18.329Z,746
2022-07-28T02:44:18.138Z,733
2022-07-28T02:46:17.729Z,732
2022-07-28T02:48:17.480Z,730
2022-07-28T02:50:17.681Z,725
2022-07-28T02:52:17.479Z,724
2022-07-28T02:54:17.891Z,720
2022-07-28T02:56:17.637Z,729
2022-07-28T02:58:17.991Z,718
2022-07-28T03:00:17.711Z,721
2022-07-28T03:02:17.629Z,722
2022-07-28T03:04:17.903Z,711
2022-07-28T03:06:17.809Z,728
2022-07-28T03:08:18.356Z,711
2022-07-28T03:10:17.815Z,712
2022-07-28T03:12:17.408Z,715
2022-07-28T03:14:18.154Z,717
2022-07-28T03:16:17.858Z,715
2022-07-28T03:18:17.895Z,698
2022-07-28T03:20:17.774Z,715
2022-07-28T03:22:17.804Z,715
2022-07-28T03:24:17.708Z,721
2022-07-28T03:26:17.535Z,710
2022-07-28T03:28:17.886Z,704
2022-07-28T03:30:17.676Z,719
2022-07-28T03:32:17.456Z,727
2022-07-28T03:34:18.222Z,722
2022-07-28T03:36:17.926Z,720
2022-07-28T03:38:18.179Z,737
2022-07-28T03:40:18.060Z,736
2022-07-28T03:42:17.825Z,727
2022-07-28T03:44:26.943Z,733
2022-07-28T03:46:17.787Z,733
2022-07-28T03:48:18.257Z,730
2022-07-28T03:50:18.352Z,747
2022-07-28T03:52:17.382Z,735
2022-07-28T03:54:18.229Z,737
2022-07-28T03:56:18.060Z,734
2022-07-28T03:58:17.346Z,724
2022-07-28T04:00:18.228Z,727
2022-07-28T04:02:18.162Z,731
2022-07-28T04:04:17.786Z,724
2022-07-28T04:06:17.888Z,724
2022-07-28T04:08:17.724Z,730
2022-07-28T04:10:17.469Z,730
2022-07-28T04:12:18.230Z,721
2022-07-28T04:14:18.637Z,720
2022-07-28T04:16:17.683Z,725
2022-07-28T04:18:17.615Z,723
2022-07-28T04:20:17.508Z,729
2022-07-28T04:22:18.216Z,726
2022-07-28T04:24:18.245Z,727
2022-07-28T04:26:17.828Z,730
2022-07-28T04:28:17.680Z,734
2022-07-28T04:30:17.499Z,737
2022-07-28T04:32:18.316Z,723
2022-07-28T04:34:18.162Z,724
2022-07-28T04:36:18.037Z,726
2022-07-28T04:38:17.851Z,731
2022-07-28T04:40:17.729Z,720
2022-07-28T04:42:17.543Z,730
2022-07-28T04:44:18.429Z,733
2022-07-28T04:46:18.206Z,750
2022-07-28T04:48:18.115Z,745
2022-07-28T04:50:17.812Z,746
2022-07-28T04:52:17.735Z,740
2022-07-28T04:54:19.988Z,734
2022-07-28T04:56:17.814Z,736
2022-07-28T04:58:17.969Z,736
2022-07-28T05:00:18.162Z,745
2022-07-28T05:02:18.317Z,749
2022-07-28T05:04:18.578Z,760
2022-07-28T05:06:17.621Z,772
2022-07-28T05:08:17.354Z,776
2022-07-28T05:10:18.255Z,780
2022-07-28T05:12:18.136Z,777
2022-07-28T05:14:18.126Z,782
2022-07-28T05:16:18.038Z,780
2022-07-28T05:18:18.104Z,778
2022-07-28T05:20:17.883Z,775
2022-07-28T05:22:17.873Z,778
2022-07-28T05:24:17.878Z,815
2022-07-28T05:26:17.937Z,796
2022-07-28T05:28:18.044Z,789
2022-07-28T05:30:18.223Z,833
2022-07-28T05:32:18.097Z,793
2022-07-28T05:34:18.096Z,787
2022-07-28T05:36:18.227Z,786
2022-07-28T05:38:17.983Z,786
2022-07-28T05:40:18.332Z,780
2022-07-28T05:42:18.300Z,782
2022-07-28T05:44:18.003Z,785
2022-07-28T05:46:17.828Z,772
2022-07-28T05:48:17.503Z,778
2022-07-28T05:50:17.820Z,758
2022-07-28T05:52:17.645Z,759
2022-07-28T05:54:17.700Z,762
2022-07-28T05:56:17.559Z,787
2022-07-28T05:58:17.370Z,787
2022-07-28T06:00:18.140Z,803
2022-07-28T06:02:17.687Z,770
2022-07-28T06:04:26.464Z,739
2022-07-28T06:06:17.546Z,707
2022-07-28T06:08:17.413Z,688
2022-07-28T06:10:18.182Z,692
2022-07-28T06:12:18.096Z,675
2022-07-28T06:14:18.401Z,673
2022-07-28T06:16:17.530Z,669
2022-07-28T06:18:17.820Z,683
2022-07-28T06:20:17.790Z,696
2022-07-28T06:22:18.089Z,692
2022-07-28T06:24:18.164Z,689
2022-07-28T06:26:17.980Z,687
2022-07-28T06:28:17.753Z,671
2022-07-28T06:30:17.570Z,662
2022-07-28T06:32:17.449Z,663
2022-07-28T06:34:18.247Z,642
2022-07-28T06:36:18.121Z,649
2022-07-28T06:38:17.919Z,640
2022-07-28T06:40:17.497Z,641
2022-07-28T06:42:17.660Z,632
2022-07-28T06:44:17.910Z,640
2022-07-28T06:46:18.034Z,636
2022-07-28T06:48:17.861Z,636
2022-07-28T06:50:24.598Z,628
2022-07-28T06:52:17.816Z,656
2022-07-28T06:54:18.078Z,635
2022-07-28T06:56:17.559Z,633
2022-07-28T06:58:17.401Z,626
2022-07-28T07:00:18.222Z,631
2022-07-28T07:02:18.349Z,628
2022-07-28T07:04:18.509Z,646
2022-07-28T07:06:17.609Z,634
2022-07-28T07:08:17.390Z,640
2022-07-28T07:10:18.194Z,650
2022-07-28T07:12:17.999Z,634
2022-07-28T07:14:18.734Z,634
2022-07-28T07:16:17.990Z,615
2022-07-28T07:18:17.487Z,612
2022-07-28T07:20:18.277Z,630
2022-07-28T07:22:18.329Z,628
2022-07-28T07:24:17.878Z,635
2022-07-28T07:26:17.476Z,626
2022-07-28T07:28:18.384Z,636
2022-07-28T07:30:18.265Z,633
2022-07-28T07:32:18.196Z,637
2022-07-28T07:34:17.805Z,624
2022-07-28T07:36:17.776Z,606
2022-07-28T07:38:17.567Z,601
2022-07-28T07:40:18.374Z,605
2022-07-28T07:42:18.456Z,604
2022-07-28T07:44:18.077Z,616
2022-07-28T07:46:18.118Z,611
2022-07-28T07:48:17.971Z,613
2022-07-28T07:50:18.026Z,628
2022-07-28T07:52:18.177Z,609
2022-07-28T07:54:18.222Z,610
2022-07-28T07:56:17.902Z,610
2022-07-28T07:58:17.646Z,614
2022-07-28T08:00:28.383Z,611
2022-07-28T08:02:18.242Z,601
2022-07-28T08:04:18.568Z,590
2022-07-28T08:06:17.459Z,608
2022-07-28T08:08:17.581Z,601
2022-07-28T08:10:17.455Z,609
2022-07-28T08:12:18.319Z,600
2022-07-28T08:14:18.469Z,613
2022-07-28T08:16:17.872Z,600
2022-07-28T08:18:17.849Z,600
2022-07-28T08:20:17.664Z,599
2022-07-28T08:22:17.753Z,602
2022-07-28T08:24:27.507Z,600
2022-07-28T08:26:17.705Z,604
2022-07-28T08:28:17.837Z,600
2022-07-28T08:30:21.279Z,605
2022-07-28T08:32:17.502Z,614
2022-07-28T08:34:26.687Z,603
2022-07-28T08:36:18.286Z,608
2022-07-28T08:38:17.437Z,610
2022-07-28T08:40:18.079Z,616
2022-07-28T08:42:17.934Z,605
2022-07-28T08:44:18.232Z,615
2022-07-28T08:46:18.331Z,619
2022-07-28T08:48:18.140Z,613
2022-07-28T08:50:18.287Z,612
2022-07-28T08:52:18.042Z,619
2022-07-28T08:54:18.048Z,607
2022-07-28T08:56:17.918Z,605
2022-07-28T08:58:17.805Z,602
2022-07-28T09:00:17.589Z,605
2022-07-28T09:02:17.688Z,606
2022-07-28T09:04:18.275Z,617
2022-07-28T09:06:18.175Z,605
2022-07-28T09:08:18.026Z,625
2022-07-28T09:10:17.819Z,619
2022-07-28T09:12:17.540Z,615
2022-07-28T09:14:17.697Z,617
2022-07-28T09:16:17.559Z,617
2022-07-28T09:18:17.541Z,613
2022-07-28T09:20:18.349Z,603
2022-07-28T09:22:18.257Z,615
2022-07-28T09:24:18.248Z,605
2022-07-28T09:26:18.178Z,605
2022-07-28T09:28:17.942Z,619
2022-07-28T09:30:17.932Z,612
2022-07-28T09:32:17.943Z,612
2022-07-28T09:34:18.378Z,604
2022-07-28T09:36:18.228Z,611
2022-07-28T09:38:18.091Z,602
2022-07-28T09:40:17.933Z,609
2022-07-28T09:42:17.757Z,612
2022-07-28T09:44:17.772Z,610
2022-07-28T09:46:17.932Z,610
2022-07-28T09:48:18.364Z,609
2022-07-28T09:50:18.237Z,602
2022-07-28T09:52:17.424Z,604
2022-07-28T09:54:18.656Z,609
2022-07-28T09:56:17.624Z,610
2022-07-28T09:58:17.967Z,619
2022-07-28T10:00:17.659Z,610
2022-07-28T10:02:18.359Z,623
2022-07-28T10:04:18.487Z,633
2022-07-28T10:06:17.438Z,622
2022-07-28T10:08:17.410Z,624
2022-07-28T10:10:18.061Z,611
2022-07-28T10:12:17.876Z,611
2022-07-28T10:14:18.276Z,615
2022-07-28T10:16:17.645Z,606
2022-07-28T10:18:17.609Z,617
2022-07-28T10:20:17.419Z,618
2022-07-28T10:22:18.228Z,615
2022-07-28T10:24:18.396Z,611
2022-07-28T10:26:18.331Z,621
2022-07-28T10:28:18.045Z,614
2022-07-28T10:30:17.925Z,631
2022-07-28T10:32:17.420Z,635
2022-07-28T10:34:18.426Z,631
2022-07-28T10:36:17.709Z,633
2022-07-28T10:38:17.499Z,626
2022-07-28T10:40:18.272Z,630
2022-07-28T10:42:18.032Z,636
2022-07-28T10:44:18.215Z,636
2022-07-28T10:46:18.039Z,637
2022-07-28T10:48:18.365Z,628
2022-07-28T10:50:18.086Z,635
2022-07-28T10:52:37.579Z,621
2022-07-28T10:54:24.796Z,619
2022-07-28T10:56:17.435Z,615
2022-07-28T10:58:17.757Z,609
2022-07-28T11:00:24.698Z,616
2022-07-28T11:02:17.785Z,623
2022-07-28T11:04:17.583Z,627
2022-07-28T11:06:17.328Z,614
2022-07-28T11:08:18.089Z,605
2022-07-28T11:10:17.422Z,609
2022-07-28T11:12:17.599Z,589
2022-07-28T11:14:17.628Z,598
2022-07-28T11:16:17.957Z,611
2022-07-28T11:18:18.089Z,605
2022-07-28T11:20:27.452Z,628
2022-07-28T11:22:18.341Z,631
2022-07-28T11:24:17.941Z,652
2022-07-28T11:26:17.966Z,625
2022-07-28T11:28:17.824Z,628
2022-07-28T11:30:18.158Z,634
2022-07-28T11:32:17.977Z,640
2022-07-28T11:34:18.030Z,664
2022-07-28T11:36:17.928Z,646
2022-07-28T11:38:17.816Z,647
2022-07-28T11:40:17.865Z,640
2022-07-28T11:42:17.869Z,628
2022-07-28T11:44:18.160Z,645
2022-07-28T11:46:17.504Z,625
2022-07-28T11:48:17.953Z,630
2022-07-28T11:50:17.807Z,638
2022-07-28T11:52:17.506Z,644
2022-07-28T11:54:17.991Z,650
2022-07-28T11:56:17.808Z,641
2022-07-28T11:58:17.602Z,647
2022-07-28T12:00:17.661Z,633
2022-07-28T12:02:18.173Z,642
2022-07-28T12:04:18.502Z,647
2022-07-28T12:06:17.520Z,631
2022-07-28T12:08:17.859Z,644
2022-07-28T12:10:31.235Z,654
2022-07-28T12:12:18.022Z,639
2022-07-28T12:14:18.169Z,629
2022-07-28T12:16:17.742Z,630
2022-07-28T12:18:17.792Z,642
2022-07-28T12:20:17.951Z,652
2022-07-28T12:22:18.321Z,636
2022-07-28T12:24:19.500Z,655
2022-07-28T12:26:17.761Z,667
2022-07-28T12:28:17.881Z,671
2022-07-28T12:30:17.838Z,669
2022-07-28T12:32:17.595Z,683
2022-07-28T12:34:17.764Z,694
2022-07-28T12:36:17.693Z,689
2022-07-28T12:38:17.378Z,673
2022-07-28T12:40:18.159Z,664
2022-07-28T12:42:18.125Z,674
2022-07-28T12:44:18.145Z,685
2022-07-28T12:46:17.975Z,689
2022-07-28T12:48:17.608Z,690
2022-07-28T12:50:17.371Z,689
2022-07-28T12:52:18.110Z,670
2022-07-28T12:54:18.333Z,661
2022-07-28T12:56:18.238Z,664
2022-07-28T12:58:18.083Z,655
2022-07-28T13:00:18.217Z,650
2022-07-28T13:02:18.130Z,650
2022-07-28T13:04:18.407Z,656
2022-07-28T13:06:17.447Z,655
2022-07-28T13:08:18.978Z,654
2022-07-28T13:10:17.554Z,647
2022-07-28T13:12:17.674Z,651
2022-07-28T13:14:18.125Z,648
2022-07-28T13:16:17.474Z,636
2022-07-28T13:18:17.680Z,630
2022-07-28T13:20:18.313Z,636
2022-07-28T13:22:18.162Z,640
2022-07-28T13:24:18.188Z,647
2022-07-28T13:26:17.678Z,657
2022-07-28T13:28:17.823Z,659
2022-07-28T13:30:17.628Z,652
2022-07-28T13:32:17.560Z,657
2022-07-28T13:34:17.898Z,636
2022-07-28T13:36:17.877Z,626
2022-07-28T13:38:17.646Z,658
2022-07-28T13:40:17.476Z,661
2022-07-28T13:42:17.487Z,657
2022-07-28T13:44:17.799Z,655
2022-07-28T13:46:18.264Z,660
2022-07-28T13:48:17.376Z,665
2022-07-28T13:50:18.261Z,665
2022-07-28T13:52:27.836Z,655
2022-07-28T13:54:18.093Z,647
2022-07-28T13:56:17.946Z,667
2022-07-28T13:58:17.849Z,728
2022-07-28T14:00:17.669Z,744
2022-07-28T14:02:18.346Z,715
2022-07-28T14:04:18.643Z,721
2022-07-28T14:06:18.149Z,702
2022-07-28T14:08:18.048Z,697
2022-07-28T14:10:18.157Z,691
2022-07-28T14:12:23.122Z,701
2022-07-28T14:14:18.003Z,693
2022-07-28T14:16:17.665Z,683
2022-07-28T14:18:17.918Z,680
2022-07-28T14:20:17.675Z,681
2022-07-28T14:22:17.985Z,713
2022-07-28T14:24:18.108Z,715
2022-07-28T14:26:35.302Z,708
2022-07-28T14:28:17.740Z,711
2022-07-28T14:30:17.783Z,698
2022-07-28T14:32:17.663Z,707
2022-07-28T14:34:18.102Z,714
2022-07-28T14:36:18.296Z,702
2022-07-28T14:40:18.218Z,728
2022-07-28T14:42:17.936Z,746
2022-07-28T14:44:19.389Z,748
2022-07-28T14:46:21.349Z,786
2022-07-28T14:48:17.565Z,792
2022-07-28T14:50:17.997Z,764
2022-07-28T14:52:17.946Z,767
2022-07-28T14:54:18.086Z,776
2022-07-28T14:56:18.212Z,790
2022-07-28T14:58:18.024Z,784
2022-07-28T15:00:17.781Z,757
2022-07-28T15:02:17.685Z,758
2022-07-28T15:04:18.066Z,769
2022-07-28T15:06:18.110Z,768
2022-07-28T15:08:17.958Z,779
2022-07-28T15:10:17.751Z,769
2022-07-28T15:12:17.903Z,779
2022-07-28T15:14:19.044Z,776
2022-07-28T15:16:18.032Z,771
2022-07-28T15:18:17.405Z,777
2022-07-28T15:20:17.384Z,799
2022-07-28T15:22:18.172Z,820
2022-07-28T15:24:18.266Z,824
2022-07-28T15:26:18.259Z,825
2022-07-28T15:28:19.187Z,831
2022-07-28T15:30:17.593Z,865
2022-07-28T15:32:17.889Z,856
2022-07-28T15:34:18.522Z,851
2022-07-28T15:36:17.788Z,845
2022-07-28T15:38:17.895Z,852
2022-07-28T15:40:17.784Z,856
2022-07-28T15:42:17.567Z,858
2022-07-28T15:44:18.267Z,896
2022-07-28T15:46:17.937Z,875
2022-07-28T15:48:17.884Z,890
2022-07-28T15:50:17.734Z,887
2022-07-28T15:52:18.030Z,880
2022-07-28T15:54:18.239Z,889
2022-07-28T15:56:17.357Z,869
2022-07-28T15:58:18.512Z,872
2022-07-28T16:00:17.833Z,877
2022-07-28T16:02:18.077Z,879
2022-07-28T16:04:18.405Z,877
2022-07-28T16:06:17.881Z,875
2022-07-28T16:08:17.415Z,876
2022-07-28T16:10:17.483Z,874
2022-07-28T16:12:18.260Z,876
2022-07-28T16:14:18.594Z,876
2022-07-28T16:16:17.551Z,862
2022-07-28T16:18:17.547Z,878
2022-07-28T16:20:17.306Z,881
2022-07-28T16:22:18.241Z,884
2022-07-28T16:24:18.252Z,888
2022-07-28T16:26:17.938Z,882
2022-07-28T16:28:17.736Z,876
2022-07-28T16:30:17.567Z,876
2022-07-28T16:32:18.233Z,871
2022-07-28T16:34:18.540Z,863
2022-07-28T16:36:17.557Z,852
2022-07-28T16:38:17.353Z,857
2022-07-28T16:40:18.291Z,852
2022-07-28T16:42:17.441Z,851
2022-07-28T16:44:17.806Z,849
2022-07-28T16:46:17.909Z,856
2022-07-28T16:48:17.837Z,849
2022-07-28T16:50:17.915Z,848
2022-07-28T16:52:17.832Z,863
2022-07-28T16:54:18.148Z,860
2022-07-28T16:56:18.242Z,852
2022-07-28T16:58:18.132Z,850
2022-07-28T17:00:18.005Z,840
2022-07-28T17:02:17.986Z,839
2022-07-28T17:04:18.258Z,829
2022-07-28T17:06:18.345Z,825
2022-07-28T17:08:17.706Z,832
2022-07-28T17:10:20.581Z,834
2022-07-28T17:12:17.976Z,823
2022-07-28T17:14:18.103Z,818
2022-07-28T17:16:18.193Z,819
2022-07-28T17:18:18.517Z,832
2022-07-28T17:20:17.486Z,821
2022-07-28T17:22:17.476Z,833
2022-07-28T17:24:18.786Z,839
2022-07-28T17:28:17.693Z,826
2022-07-28T17:30:17.633Z,825
2022-07-28T17:32:17.526Z,829
2022-07-28T17:34:17.749Z,829
2022-07-28T17:36:17.769Z,815
2022-07-28T17:38:17.784Z,818
2022-07-28T17:40:17.584Z,813
2022-07-28T17:42:18.285Z,818
2022-07-28T17:44:18.504Z,814
2022-07-28T17:46:17.528Z,826
2022-07-28T17:48:18.044Z,813
2022-07-28T17:50:18.015Z,812
2022-07-28T17:52:17.789Z,804
2022-07-28T17:54:17.953Z,813
2022-07-28T17:56:17.541Z,811
2022-07-28T17:58:17.895Z,818
2022-07-28T18:00:17.933Z,806
2022-07-28T18:02:18.265Z,804
2022-07-28T18:04:18.455Z,800
2022-07-28T18:06:17.619Z,804
2022-07-28T18:08:18.063Z,795
2022-07-28T18:10:17.628Z,798
2022-07-28T18:12:17.495Z,770
2022-07-28T18:14:17.982Z,792
2022-07-28T18:16:18.281Z,801
2022-07-28T18:18:17.417Z,784
2022-07-28T18:20:18.041Z,784
2022-07-28T18:22:17.895Z,791
2022-07-28T18:24:17.684Z,773
2022-07-28T18:26:17.473Z,771
2022-07-28T18:28:18.238Z,761
2022-07-28T18:30:18.016Z,737
2022-07-28T18:32:17.843Z,755
2022-07-28T18:34:18.138Z,757
2022-07-28T18:36:17.658Z,727
2022-07-28T18:38:17.645Z,759
2022-07-28T18:40:18.196Z,761
2022-07-28T18:42:17.900Z,771
2022-07-28T18:44:19.353Z,779
2022-07-28T18:46:18.386Z,780
2022-07-28T18:48:18.286Z,775
2022-07-28T18:50:27.977Z,777
2022-07-28T18:52:18.214Z,771
2022-07-28T18:54:21.772Z,781
2022-07-28T18:56:17.938Z,783
2022-07-28T18:58:17.691Z,781
2022-07-28T19:00:17.439Z,784
2022-07-28T19:02:18.387Z,791
2022-07-28T19:04:18.108Z,782
2022-07-28T19:06:18.148Z,784
2022-07-28T19:08:17.690Z,784
2022-07-28T19:10:17.822Z,788
2022-07-28T19:12:17.576Z,784
2022-07-28T19:14:17.997Z,784
2022-07-28T19:16:18.151Z,788
2022-07-28T19:18:18.387Z,779
2022-07-28T19:20:18.292Z,792
2022-07-28T19:22:18.193Z,785
2022-07-28T19:24:18.342Z,782
2022-07-28T19:26:17.375Z,786
2022-07-28T19:28:17.742Z,794
2022-07-28T19:30:18.054Z,789
2022-07-28T19:32:18.017Z,784
2022-07-28T19:34:18.682Z,784
2022-07-28T19:36:18.095Z,761
2022-07-28T19:38:18.091Z,756
2022-07-28T19:40:17.860Z,724
2022-07-28T19:42:17.452Z,716
2022-07-28T19:44:18.243Z,706
2022-07-28T19:46:17.420Z,668
2022-07-28T19:48:18.235Z,728
2022-07-28T19:50:18.049Z,687
2022-07-28T19:52:17.930Z,667
2022-07-28T19:54:18.169Z,668
2022-07-28T19:56:18.064Z,662
2022-07-28T19:58:18.338Z,643
2022-07-28T20:00:17.654Z,636
2022-07-28T20:02:17.622Z,627
2022-07-28T20:04:17.634Z,634
2022-07-28T20:06:18.257Z,620
2022-07-28T20:08:18.120Z,610
2022-07-28T20:10:18.034Z,612
2022-07-28T20:12:17.420Z,612
2022-07-28T20:14:18.011Z,604
2022-07-28T20:16:18.241Z,594
2022-07-28T20:18:17.760Z,592
2022-07-28T20:20:18.179Z,596
2022-07-28T20:22:17.942Z,570
2022-07-28T20:24:18.180Z,604
2022-07-28T20:26:18.218Z,606
2022-07-28T20:28:18.329Z,603
2022-07-28T20:30:18.065Z,607
2022-07-28T20:32:17.894Z,604
2022-07-28T20:34:18.046Z,598
2022-07-28T20:36:18.172Z,599
2022-07-28T20:38:18.100Z,599
2022-07-28T20:40:18.143Z,504
2022-07-28T20:42:17.960Z,598
2022-07-28T20:44:28.641Z,585
2022-07-28T20:46:18.038Z,575
2022-07-28T20:48:17.827Z,568
2022-07-28T20:50:17.695Z,569
2022-07-28T20:52:17.511Z,564
2022-07-28T20:54:18.064Z,553
2022-07-28T20:56:18.161Z,557
2022-07-28T20:58:18.278Z,555
2022-07-28T21:00:18.231Z,552
2022-07-28T21:02:18.329Z,557
2022-07-28T21:04:18.091Z,554
2022-07-28T21:06:17.809Z,549
2022-07-28T21:08:18.465Z,542
2022-07-28T21:10:17.422Z,542
2022-07-28T21:12:17.491Z,540
2022-07-28T21:14:18.186Z,540
2022-07-28T21:16:18.040Z,536
2022-07-28T21:18:17.518Z,541
2022-07-28T21:20:17.494Z,537
2022-07-28T21:22:18.259Z,537
2022-07-28T21:24:18.633Z,545
2022-07-28T21:26:18.084Z,494
2022-07-28T21:28:17.266Z,540
2022-07-28T21:30:17.422Z,534
2022-07-28T21:32:18.180Z,538
2022-07-28T21:34:17.989Z,548
2022-07-28T21:36:18.231Z,558
2022-07-28T21:38:18.072Z,568
2022-07-28T21:40:19.137Z,586
2022-07-28T21:42:17.521Z,583
2022-07-28T21:44:18.477Z,601
2022-07-28T21:46:18.368Z,623
2022-07-28T21:48:18.232Z,616
2022-07-28T21:50:18.313Z,631
2022-07-28T21:52:18.060Z,626
2022-07-28T21:54:17.898Z,626
2022-07-28T21:56:17.849Z,649
2022-07-28T21:58:18.090Z,638
2022-07-28T22:00:17.914Z,624
2022-07-28T22:02:18.015Z,646
2022-07-28T22:04:18.363Z,645
2022-07-28T22:06:17.835Z,652
2022-07-28T22:08:17.665Z,644
2022-07-28T22:10:18.361Z,643
2022-07-28T22:12:17.763Z,647
2022-07-28T22:14:18.990Z,636
2022-07-28T22:16:18.161Z,648
2022-07-28T22:18:18.181Z,647
2022-07-28T22:20:17.974Z,644
2022-07-28T22:22:18.119Z,648
2022-07-28T22:24:17.752Z,641
2022-07-28T22:26:17.551Z,657
2022-07-28T22:28:18.126Z,647
2022-07-28T22:30:18.005Z,646
2022-07-28T22:32:17.894Z,654
2022-07-28T22:34:17.702Z,649
2022-07-28T22:36:17.604Z,657
2022-07-28T22:38:17.676Z,658
2022-07-28T22:40:17.557Z,657
2022-07-28T22:42:17.296Z,664
2022-07-28T22:44:17.744Z,650
2022-07-28T22:46:18.247Z,652
2022-07-28T22:48:17.867Z,655
2022-07-28T22:50:17.481Z,654
2022-07-28T22:52:18.303Z,652
2022-07-28T22:54:18.429Z,650
2022-07-28T22:56:18.094Z,648
2022-07-28T22:58:17.975Z,653
2022-07-28T23:00:17.742Z,665
2022-07-28T23:02:18.322Z,668
2022-07-28T23:04:18.199Z,674
2022-07-28T23:06:18.324Z,669
2022-07-28T23:08:18.054Z,669
2022-07-28T23:10:17.769Z,666
2022-07-28T23:12:17.424Z,673
2022-07-28T23:14:18.573Z,659
2022-07-28T23:16:17.643Z,664
2022-07-28T23:18:17.597Z,660
2022-07-28T23:20:17.390Z,665
2022-07-28T23:22:17.614Z,665
2022-07-28T23:24:18.492Z,658
2022-07-28T23:26:17.859Z,660
2022-07-28T23:28:17.623Z,664
2022-07-28T23:30:17.370Z,662
2022-07-28T23:32:18.261Z,668
2022-07-28T23:34:18.536Z,655
2022-07-28T23:36:27.037Z,662
2022-07-28T23:38:18.375Z,658
2022-07-28T23:40:18.506Z,659
2022-07-28T23:42:18.516Z,668
2022-07-28T23:44:18.658Z,658
2022-07-28T23:46:17.659Z,660
2022-07-28T23:48:17.728Z,660
2022-07-28T23:50:17.602Z,661
2022-07-28T23:52:17.719Z,661
2022-07-28T23:54:18.135Z,663
2022-07-28T23:56:18.063Z,662
2022-07-28T23:58:18.209Z,658
